Time;durP1;ratioP1;P1;durP2;ratioP2;P2;SDS_P1;SDS_P2;PMS_P1;PMS_P2;Temp;Humidity;BMP_temperature;BMP_pressure;BME280_temperature;BME280_humidity;BME280_pressure;Samples;Min_cycle;Max_cycle;Signal;HPM_P1;HPM_P2
2022/04/12 00:00:18;;;;;;;10.55;5.80;;;;;;;10.00;50.10;101011.00;5011310;28;20038;-57
2022/04/12 00:02:43;;;;;;;10.32;5.85;;;;;;;10.01;50.16;101010.00;5009855;28;20040;-57
2022/04/12 00:05:11;;;;;;;6.85;5.35;;;;;;;9.99;50.23;101001.38;5012157;28;20109;-58
2022/04/12 00:07:38;;;;;;;9.98;5.70;;;;;;;9.99;49.94;101000.53;5011441;28;20026;-57
2022/04/12 00:10:04;;;;;;;10.32;5.78;;;;;;;9.95;50.74;101000.03;5010700;28;20032;-57
2022/04/12 00:12:29;;;;;;;9.48;5.18;;;;;;;9.94;50.49;100999.19;5009279;28;20456;-58
2022/04/12 00:14:54;;;;;;;11.55;5.65;;;;;;;9.94;49.66;101001.00;5011340;28;20037;-58
2022/04/12 00:20:04;;;;;;;9.82;5.38;;;;;;;9.94;50.52;100987.75;5010019;28;20048;-58
2022/04/12 00:22:29;;;;;;;10.15;5.30;;;;;;;9.93;49.51;100991.41;5011414;28;20030;-57
2022/04/12 00:24:54;;;;;;;8.27;5.13;;;;;;;9.90;50.51;100987.25;5011579;28;20041;-58
2022/04/12 00:27:20;;;;;;;10.68;5.28;;;;;;;9.90;50.18;100992.53;5011465;28;20042;-58
2022/04/12 00:29:45;;;;;;;10.02;5.40;;;;;;;9.88;50.13;100993.66;5009972;28;20045;-58
2022/04/12 00:32:10;;;;;;;7.93;4.85;;;;;;;9.88;49.84;100993.66;5010076;28;20066;-58
2022/04/12 00:34:36;;;;;;;10.20;5.18;;;;;;;9.85;50.45;100983.38;5011695;28;20505;-57
2022/04/12 00:37:01;;;;;;;11.85;4.75;;;;;;;9.83;49.75;100992.31;5011173;28;20030;-57
2022/04/12 00:39:26;;;;;;;8.27;5.18;;;;;;;9.85;50.72;100993.97;5008968;28;20022;-57
2022/04/12 00:41:51;;;;;;;8.52;5.07;;;;;;;9.82;50.33;100989.84;5011460;28;20026;-58
2022/04/12 00:44:17;;;;;;;10.00;5.35;;;;;;;9.79;50.82;100990.13;5011647;28;20373;-57
2022/04/12 00:46:42;;;;;;;11.25;5.10;;;;;;;9.78;50.52;100996.41;5010118;28;20030;-58
2022/04/12 00:49:07;;;;;;;8.45;4.90;;;;;;;9.75;51.54;100983.47;5010563;28;20042;-57
2022/04/12 00:51:32;;;;;;;8.98;4.70;;;;;;;9.77;50.47;100987.63;5011181;28;20554;-57
2022/04/12 00:53:58;;;;;;;8.15;4.78;;;;;;;9.73;50.48;100986.28;5010620;28;20034;-58
2022/04/12 00:56:24;;;;;;;8.35;5.07;;;;;;;9.73;51.22;100985.44;5009728;28;20036;-57
2022/04/12 00:58:50;;;;;;;12.35;5.05;;;;;;;9.68;51.32;100988.53;5011334;28;20038;-57
2022/04/12 01:01:16;;;;;;;8.88;4.90;;;;;;;9.66;51.32;100995.78;5013446;28;20099;-58
2022/04/12 01:03:41;;;;;;;7.82;4.70;;;;;;;9.63;50.87;100998.75;5010752;28;20444;-57
2022/04/12 01:06:07;;;;;;;8.63;4.82;;;;;;;9.62;51.46;100994.44;5014731;28;20049;-58
2022/04/12 01:08:34;;;;;;;10.88;5.20;;;;;;;9.60;51.25;100991.09;5012302;28;20432;-57
2022/04/12 01:11:06;;;;;;;10.18;5.10;;;;;;;9.57;51.67;100980.84;5014188;28;20037;-58
2022/04/12 01:13:32;;;;;;;8.15;4.82;;;;;;;9.58;51.90;100974.53;5011980;28;20461;-57
2022/04/12 01:15:57;;;;;;;10.75;5.05;;;;;;;9.53;51.83;100978.47;5011706;28;20042;-58
2022/04/12 01:18:22;;;;;;;7.97;5.10;;;;;;;9.50;52.42;100981.44;5014487;28;20040;-57
2022/04/12 01:20:47;;;;;;;12.73;4.88;;;;;;;9.45;52.30;100973.13;5014715;28;20476;-56
2022/04/12 01:23:18;;;;;;;9.10;5.00;;;;;;;9.36;52.79;100976.66;5013315;28;20040;-56
2022/04/12 01:25:44;;;;;;;8.05;4.95;;;;;;;9.39;51.95;100986.94;5014200;28;20452;-57
2022/04/12 01:28:10;;;;;;;13.25;5.32;;;;;;;9.37;52.13;100983.63;5014347;28;20044;-58
2022/04/12 01:30:36;;;;;;;12.70;5.30;;;;;;;9.36;52.81;100985.44;5011884;28;20029;-57
2022/04/12 01:33:02;;;;;;;8.70;5.00;;;;;;;9.34;51.97;100981.28;5027340;28;20084;-57
2022/04/12 01:35:27;;;;;;;8.63;5.20;;;;;;;9.32;52.76;100977.94;5008455;28;20034;-57
2022/04/12 01:37:53;;;;;;;10.57;5.07;;;;;;;9.28;52.69;100983.53;5012885;28;20029;-58
2022/04/12 01:40:19;;;;;;;8.45;5.15;;;;;;;9.26;52.90;100974.91;5012414;28;20041;-58
2022/04/12 01:42:44;;;;;;;9.38;5.07;;;;;;;9.25;52.96;100977.69;5011416;28;20041;-57
2022/04/12 01:45:10;;;;;;;9.80;4.93;;;;;;;9.23;53.15;100979.69;5012475;28;20022;-58
2022/04/12 01:47:36;;;;;;;11.75;5.35;;;;;;;9.21;52.89;100979.81;5009897;28;20030;-57
2022/04/12 01:50:03;;;;;;;11.65;5.35;;;;;;;9.14;53.73;100976.09;5011349;28;20030;-58
2022/04/12 01:52:28;;;;;;;8.15;5.10;;;;;;;9.18;53.09;100977.44;5011941;28;20717;-57
2022/04/12 01:54:53;;;;;;;8.48;5.03;;;;;;;9.14;53.73;100970.81;5020825;28;20033;-57
2022/04/12 01:57:19;;;;;;;9.00;5.50;;;;;;;9.12;53.93;100970.13;5011840;28;20376;-57
2022/04/12 01:59:44;;;;;;;11.52;5.18;;;;;;;9.10;53.36;100965.00;5012743;28;20025;-57
2022/04/12 02:02:10;;;;;;;11.68;5.28;;;;;;;9.08;53.07;100956.34;5010169;28;20045;-57
2022/04/12 02:04:35;;;;;;;9.30;5.40;;;;;;;9.06;54.05;100962.78;5012607;28;20046;-58
2022/04/12 02:07:01;;;;;;;12.07;5.10;;;;;;;9.02;54.48;100965.72;5011609;28;20029;-58
2022/04/12 02:09:26;;;;;;;9.98;4.93;;;;;;;9.00;53.55;100965.06;5011818;28;20044;-57
2022/04/12 02:11:55;;;;;;;9.55;4.95;;;;;;;8.98;53.91;100982.88;5012784;28;20461;-57
2022/04/12 02:14:21;;;;;;;9.70;5.10;;;;;;;8.94;54.04;100976.19;5013148;28;20056;-57
2022/04/12 02:16:46;;;;;;;11.20;5.45;;;;;;;8.92;55.23;100969.41;5009872;28;20050;-58
2022/04/12 02:19:12;;;;;;;9.27;5.30;;;;;;;8.91;54.63;100968.56;5011289;28;20080;-57
2022/04/12 02:21:37;;;;;;;12.77;5.13;;;;;;;8.89;54.68;100965.25;5011639;28;20084;-57
2022/04/12 02:24:03;;;;;;;11.48;5.32;;;;;;;8.87;54.50;100953.97;5010052;28;20041;-57
2022/04/12 02:26:28;;;;;;;8.50;5.10;;;;;;;8.85;55.13;100963.88;5012543;28;20380;-58
2022/04/12 02:28:53;;;;;;;8.20;4.97;;;;;;;8.82;54.64;100967.63;5012600;28;20034;-58
2022/04/12 02:31:18;;;;;;;8.95;5.18;;;;;;;8.81;54.97;100965.13;5012912;28;20045;-57
2022/04/12 02:33:45;;;;;;;9.68;5.10;;;;;;;8.79;55.69;100967.09;5011569;28;20026;-58
2022/04/12 02:36:11;;;;;;;9.35;4.97;;;;;;;8.80;55.04;100955.53;5012633;28;20045;-57
2022/04/12 02:38:36;;;;;;;10.48;5.30;;;;;;;8.77;55.61;100956.66;5012209;28;20380;-57
2022/04/12 02:41:01;;;;;;;9.32;5.20;;;;;;;8.74;55.12;100955.16;5014516;28;20068;-58
2022/04/12 02:43:27;;;;;;;10.95;5.28;;;;;;;8.70;54.81;100963.53;5010963;28;20036;-58
2022/04/12 02:45:52;;;;;;;9.75;5.30;;;;;;;8.65;55.70;100955.19;5013157;28;20045;-58
2022/04/12 02:48:17;;;;;;;10.80;5.65;;;;;;;8.61;55.75;100949.38;5012041;28;20090;-57
2022/04/12 02:50:42;;;;;;;9.80;5.30;;;;;;;8.51;56.53;100943.25;5012649;28;20034;-58
2022/04/12 02:53:08;;;;;;;10.50;5.80;;;;;;;8.51;56.25;100952.03;5011328;28;20033;-58
2022/04/12 02:55:33;;;;;;;11.25;5.57;;;;;;;8.46;56.68;100936.59;5012268;28;20496;-57
2022/04/12 02:57:58;;;;;;;10.68;5.88;;;;;;;8.43;56.86;100946.59;5012211;28;20092;-57
2022/04/12 03:00:23;;;;;;;9.73;5.95;;;;;;;8.36;56.82;100941.09;5010724;28;20117;-57
2022/04/12 03:02:49;;;;;;;7.93;5.65;;;;;;;8.37;56.88;100945.38;5010872;28;20084;-58
2022/04/12 03:05:14;;;;;;;11.55;6.00;;;;;;;8.28;58.17;100933.03;5012667;28;20616;-58
2022/04/12 03:07:39;;;;;;;11.55;6.00;;;;;;;8.28;58.15;100933.03;5012017;28;20044;-57
2022/04/12 03:10:05;;;;;;;9.77;5.60;;;;;;;8.25;58.60;100922.75;5010366;28;20038;-57
2022/04/12 03:12:30;;;;;;;12.75;6.22;;;;;;;8.25;57.65;100913.03;5012152;28;20042;-57
2022/04/12 03:14:55;;;;;;;9.55;6.05;;;;;;;8.25;57.69;100923.59;5012943;28;20044;-57
2022/04/12 03:17:21;;;;;;;11.43;6.18;;;;;;;8.23;57.88;100919.44;5012013;28;20128;-58
2022/04/12 03:19:46;;;;;;;10.15;5.93;;;;;;;8.18;57.84;100923.34;5010712;28;20065;-58
2022/04/12 03:22:12;;;;;;;11.68;6.20;;;;;;;8.17;58.16;100911.13;5009177;28;20888;-57
2022/04/12 03:24:38;;;;;;;9.98;6.15;;;;;;;8.15;57.82;100897.19;5011371;28;20108;-57
2022/04/12 03:27:04;;;;;;;9.77;5.88;;;;;;;8.14;57.83;100905.28;5011990;28;20034;-57
2022/04/12 03:29:29;;;;;;;10.27;5.80;;;;;;;8.12;58.16;100907.22;5012091;28;20034;-57
2022/04/12 03:31:54;;;;;;;9.50;5.97;;;;;;;8.12;58.05;100901.94;5011724;28;20033;-57
2022/04/12 03:34:21;;;;;;;11.35;6.28;;;;;;;8.11;57.76;100901.13;5011884;28;20033;-58
2022/04/12 03:36:46;;;;;;;12.25;6.35;;;;;;;8.06;58.13;100901.53;5011756;28;20030;-58
2022/04/12 03:39:17;;;;;;;10.70;6.07;;;;;;;8.02;58.20;100901.97;5011059;28;20030;-57
2022/04/12 03:41:46;;;;;;;9.90;6.13;;;;;;;8.03;58.70;100915.03;5011325;28;20117;-57
2022/04/12 03:44:13;;;;;;;10.88;6.22;;;;;;;8.04;58.94;100907.97;5011502;28;20080;-57
2022/04/12 03:46:38;;;;;;;9.55;6.15;;;;;;;8.04;59.28;100916.69;5010447;28;20080;-57
2022/04/12 03:49:03;;;;;;;10.95;6.00;;;;;;;8.02;59.65;100913.38;5010920;28;20030;-58
2022/04/12 03:51:29;;;;;;;13.10;6.03;;;;;;;8.01;58.76;100905.59;5010156;28;20026;-58
2022/04/12 03:53:54;;;;;;;11.75;6.05;;;;;;;8.00;58.75;100894.19;5011473;28;20026;-58
2022/04/12 03:56:19;;;;;;;10.63;5.88;;;;;;;7.99;59.10;100886.44;5012108;28;20110;-58
2022/04/12 03:58:44;;;;;;;11.10;6.15;;;;;;;8.00;59.28;100882.81;5007558;28;20361;-58
2022/04/12 04:01:10;;;;;;;12.32;6.13;;;;;;;7.97;59.24;100888.34;5005866;28;20140;-57
2022/04/12 04:03:35;;;;;;;11.35;6.28;;;;;;;7.97;59.79;100893.63;5018864;28;20136;-58
2022/04/12 04:06:02;;;;;;;10.55;6.00;;;;;;;7.97;59.52;100894.47;5008893;28;20060;-58
2022/04/12 04:08:27;;;;;;;10.70;5.90;;;;;;;7.94;59.93;100890.31;5010217;28;20128;-57
2022/04/12 04:10:53;;;;;;;12.27;6.13;;;;;;;7.97;59.86;100888.34;5010309;28;20156;-58
2022/04/12 04:13:18;;;;;;;9.60;5.88;;;;;;;7.99;59.84;100892.53;5011103;28;20037;-58
2022/04/12 04:15:45;;;;;;;11.77;5.97;;;;;;;8.00;59.81;100888.09;5011306;28;20021;-57
2022/04/12 04:18:10;;;;;;;13.40;6.07;;;;;;;8.01;59.98;100892.38;5010892;28;20056;-57
2022/04/12 04:20:36;;;;;;;12.50;6.20;;;;;;;8.00;60.04;100894.19;5007255;28;20034;-57
2022/04/12 04:23:01;;;;;;;10.73;6.00;;;;;;;8.00;59.73;100893.38;5011040;28;20038;-57
2022/04/12 04:25:27;;;;;;;11.25;6.00;;;;;;;8.02;60.00;100886.13;5009296;28;20026;-57
2022/04/12 04:27:52;;;;;;;11.63;6.22;;;;;;;7.98;59.90;100895.34;5010829;28;20057;-56
2022/04/12 04:30:19;;;;;;;12.88;6.13;;;;;;;8.00;59.92;100896.00;5010121;28;20030;-57
2022/04/12 04:32:44;;;;;;;16.58;6.70;;;;;;;7.99;59.61;100892.53;5011700;28;20065;-57
2022/04/12 04:35:10;;;;;;;13.18;6.15;;;;;;;7.95;59.66;100896.44;5015355;28;20072;-57
2022/04/12 04:37:46;;;;;;;14.57;6.63;;;;;;;7.97;59.83;100896.28;5014625;28;20030;-58
2022/04/12 04:40:22;;;;;;;12.02;6.50;;;;;;;7.94;59.63;100890.31;5013858;28;20025;-57
2022/04/12 04:42:49;;;;;;;14.93;6.82;;;;;;;7.93;60.06;100893.94;5013754;28;20053;-57
2022/04/12 04:45:15;;;;;;;16.20;6.78;;;;;;;7.86;60.42;100906.06;5014239;28;20034;-57
2022/04/12 04:47:52;;;;;;;17.50;6.57;;;;;;;7.88;60.41;100912.00;5014462;28;20034;-56
2022/04/12 04:50:19;;;;;;;13.30;6.43;;;;;;;7.82;60.41;100923.13;5013655;28;20028;-57
2022/04/12 04:52:44;;;;;;;14.40;6.70;;;;;;;7.79;60.28;100933.97;5014435;28;20476;-57
2022/04/12 04:55:10;;;;;;;14.65;6.40;;;;;;;7.80;60.46;100938.31;5015941;28;20034;-57
2022/04/12 04:57:40;;;;;;;12.25;6.47;;;;;;;7.78;60.76;100934.94;5015182;28;20467;-58
2022/04/12 05:00:07;;;;;;;11.38;6.38;;;;;;;7.78;60.67;100950.78;5011473;28;20053;-58
2022/04/12 05:02:33;;;;;;;14.05;6.97;;;;;;;7.75;62.50;100945.81;5014817;28;20034;-58
2022/04/12 05:04:58;;;;;;;13.60;6.65;;;;;;;7.78;62.41;100934.94;5014460;28;20057;-58
2022/04/12 05:07:25;;;;;;;13.60;6.40;;;;;;;7.80;61.39;100928.56;5014284;28;20030;-57
2022/04/12 05:09:52;;;;;;;13.13;6.32;;;;;;;7.79;61.43;100920.78;5010281;28;20026;-57
2022/04/12 05:12:17;;;;;;;11.50;6.45;;;;;;;7.79;61.72;100915.50;5012982;28;20049;-57
2022/04/12 05:14:42;;;;;;;11.25;6.32;;;;;;;7.81;61.62;100910.91;5012971;28;20038;-58
2022/04/12 05:17:07;;;;;;;11.40;6.60;;;;;;;7.84;62.10;100915.09;5012481;28;20056;-57
2022/04/12 05:19:33;;;;;;;16.10;6.70;;;;;;;7.84;61.79;100921.19;5012965;28;20457;-57
2022/04/12 05:21:58;;;;;;;14.73;7.05;;;;;;;7.85;61.62;100922.84;5012818;28;20042;-56
2022/04/12 05:24:23;;;;;;;13.73;7.00;;;;;;;7.89;62.08;100913.69;5014601;28;20061;-57
2022/04/12 05:26:48;;;;;;;13.70;6.43;;;;;;;7.90;62.11;100920.63;5013571;28;20034;-58
2022/04/12 05:29:14;;;;;;;14.10;7.00;;;;;;;7.91;61.46;100919.63;5006712;28;20068;-57
2022/04/12 05:31:39;;;;;;;13.93;6.65;;;;;;;7.94;61.61;100910.59;5007668;28;20041;-57
2022/04/12 05:34:05;;;;;;;11.60;6.90;;;;;;;7.96;61.13;100907.81;5007750;28;20042;-58
2022/04/12 05:36:30;;;;;;;14.80;6.70;;;;;;;7.96;61.86;100911.31;5006237;28;20929;-57
2022/04/12 05:38:56;;;;;;;16.58;6.75;;;;;;;7.94;61.64;100913.25;5008813;28;20698;-58
2022/04/12 05:41:22;;;;;;;13.75;6.88;;;;;;;7.96;61.94;100919.22;5003258;28;20512;-58
2022/04/12 05:43:47;;;;;;;15.43;7.00;;;;;;;7.98;61.81;100911.19;5005550;28;20109;-56
2022/04/12 05:46:12;;;;;;;11.55;6.80;;;;;;;7.98;61.36;100901.44;5008539;28;20488;-57
2022/04/12 05:48:38;;;;;;;13.32;7.13;;;;;;;7.98;61.67;100913.81;5008130;28;20113;-57
2022/04/12 05:51:03;;;;;;;16.02;7.63;;;;;;;7.99;62.22;100918.13;5010548;28;20025;-57
2022/04/12 05:53:28;;;;;;;13.63;7.10;;;;;;;7.99;61.87;100928.69;5006437;28;20141;-56
2022/04/12 05:55:54;;;;;;;13.27;7.10;;;;;;;8.00;61.90;100930.34;5009423;28;20033;-56
2022/04/12 05:58:20;;;;;;;15.38;7.43;;;;;;;8.01;61.94;100922.28;5009181;28;20041;-56
2022/04/12 06:00:45;;;;;;;13.57;7.40;;;;;;;8.01;61.86;100924.06;5012950;28;20123;-56
2022/04/12 06:03:10;;;;;;;13.60;6.90;;;;;;;8.05;61.64;100918.34;5010558;28;20421;-57
2022/04/12 06:05:36;;;;;;;15.25;7.43;;;;;;;8.07;61.83;100927.00;5013993;28;20029;-57
2022/04/12 06:08:03;;;;;;;12.60;7.15;;;;;;;8.09;62.00;100918.91;5013496;28;20034;-56
2022/04/12 06:10:28;;;;;;;14.63;7.53;;;;;;;8.08;62.01;100927.81;5009907;28;20026;-56
2022/04/12 06:12:54;;;;;;;13.20;7.93;;;;;;;8.13;62.45;100930.84;5009443;28;20195;-56
2022/04/12 06:15:19;;;;;;;15.13;7.70;;;;;;;8.21;61.52;100925.69;5012242;28;20162;-57
2022/04/12 06:17:45;;;;;;;12.70;7.43;;;;;;;8.27;61.93;100920.81;5007782;28;20046;-57
2022/04/12 06:20:16;;;;;;;15.27;7.68;;;;;;;8.28;62.09;100912.75;5009320;28;20116;-58
2022/04/12 06:22:42;;;;;;;12.15;7.55;;;;;;;8.42;61.72;100929.09;5004991;28;20458;-56
2022/04/12 06:25:08;;;;;;;13.40;8.00;;;;;;;8.51;61.44;100927.38;5007923;28;20030;-56
2022/04/12 06:27:38;;;;;;;14.98;7.50;;;;;;;8.58;60.54;100924.06;5006518;28;20536;-56
2022/04/12 06:30:14;;;;;;;14.27;7.78;;;;;;;8.65;61.79;100932.25;5008913;28;20377;-56
2022/04/12 06:32:40;;;;;;;16.88;7.50;;;;;;;8.71;60.89;100925.53;5007028;28;20040;-57
2022/04/12 06:35:09;;;;;;;14.45;7.78;;;;;;;8.78;60.94;100933.72;5007485;28;20042;-56
2022/04/12 06:37:34;;;;;;;13.75;7.40;;;;;;;8.81;60.76;100925.47;5006589;28;20064;-56
2022/04/12 06:40:00;;;;;;;13.48;7.40;;;;;;;8.87;60.56;100930.16;5007497;28;20062;-57
2022/04/12 06:42:26;;;;;;;15.60;7.57;;;;;;;8.89;60.69;100933.50;5006874;28;20499;-57
2022/04/12 06:44:52;;;;;;;11.82;7.40;;;;;;;8.94;60.09;100933.06;5013341;28;20037;-57
2022/04/12 06:47:18;;;;;;;15.52;7.32;;;;;;;9.01;59.96;100924.38;5012769;28;20038;-56
2022/04/12 06:49:48;;;;;;;14.18;7.90;;;;;;;9.12;59.87;100914.56;5013098;28;20033;-57
2022/04/12 06:52:14;;;;;;;11.55;7.35;;;;;;;9.18;60.06;100903.38;5011826;28;20040;-57
2022/04/12 06:54:40;;;;;;;11.25;7.38;;;;;;;9.25;59.92;100907.09;5013277;28;20026;-57
2022/04/12 06:57:06;;;;;;;14.88;7.55;;;;;;;9.36;59.65;100915.78;5011847;28;20034;-57
2022/04/12 06:59:32;;;;;;;16.42;7.28;;;;;;;9.46;59.19;100921.81;5012843;28;20113;-56
2022/04/12 07:01:57;;;;;;;11.98;7.40;;;;;;;9.57;59.21;100922.59;5012352;28;20026;-56
2022/04/12 07:04:23;;;;;;;12.70;7.35;;;;;;;9.67;58.19;100913.56;5012756;28;20117;-57
2022/04/12 07:06:48;;;;;;;11.57;6.95;;;;;;;9.80;59.17;100921.13;5012675;28;20038;-56
2022/04/12 07:09:20;;;;;;;14.45;7.35;;;;;;;9.93;57.53;100906.63;5011263;28;20508;-57
2022/04/12 07:11:49;;;;;;;11.93;7.00;;;;;;;10.03;57.72;100906.53;5012219;28;20554;-55
2022/04/12 07:14:14;;;;;;;16.23;7.82;;;;;;;10.13;57.57;100906.41;5012208;28;20091;-56
2022/04/12 07:16:39;;;;;;;10.20;6.85;;;;;;;10.25;57.66;100910.47;5008911;28;20436;-56
2022/04/12 07:19:04;;;;;;;12.75;7.38;;;;;;;10.37;56.39;100913.69;5005444;28;20029;-56
2022/04/12 07:21:31;;;;;;;11.55;6.63;;;;;;;10.48;56.53;100916.09;5018970;28;20069;-57
2022/04/12 07:23:58;;;;;;;12.30;6.78;;;;;;;10.60;56.36;100921.91;5017240;28;20045;-56
2022/04/12 07:26:24;;;;;;;10.65;6.32;;;;;;;10.70;55.73;100915.66;5019567;28;20025;-58
2022/04/12 07:28:49;;;;;;;11.85;7.07;;;;;;;10.79;55.26;100912.03;5012690;28;20041;-57
2022/04/12 07:31:15;;;;;;;10.80;6.82;;;;;;;10.92;55.86;100916.06;5012108;28;20030;-57
2022/04/12 07:33:40;;;;;;;14.07;6.72;;;;;;;11.02;55.29;100916.75;5012849;28;20037;-57
2022/04/12 07:36:05;;;;;;;11.02;6.50;;;;;;;11.13;55.15;100908.47;5012308;28;20041;-57
2022/04/12 07:38:30;;;;;;;13.30;6.18;;;;;;;11.25;55.65;100916.13;5012028;28;20476;-58
2022/04/12 07:40:56;;;;;;;13.77;6.32;;;;;;;11.38;55.39;100913.81;5011537;28;20096;-57
2022/04/12 07:43:21;;;;;;;15.40;6.22;;;;;;;11.52;54.91;100907.03;5012769;28;20034;-57
2022/04/12 07:45:46;;;;;;;12.13;6.07;;;;;;;11.64;54.31;100910.16;5012238;28;20030;-58
2022/04/12 07:48:12;;;;;;;10.93;6.15;;;;;;;11.79;53.52;100906.84;5012293;28;20527;-57
2022/04/12 07:50:38;;;;;;;9.65;5.45;;;;;;;11.89;53.20;100907.47;5011974;28;20054;-57
2022/04/12 07:53:04;;;;;;;10.77;5.80;;;;;;;11.93;53.37;100900.84;5012688;28;20068;-58
2022/04/12 07:55:29;;;;;;;9.93;5.78;;;;;;;12.11;52.73;100910.47;5011522;28;20088;-58
2022/04/12 07:57:54;;;;;;;8.98;5.47;;;;;;;12.20;52.61;100909.44;5012289;28;20072;-58
2022/04/12 08:00:19;;;;;;;11.27;6.05;;;;;;;12.31;53.32;100912.72;5006802;28;20449;-57
2022/04/12 08:02:45;;;;;;;10.68;5.63;;;;;;;12.49;51.74;100910.66;5012184;28;20427;-57
2022/04/12 08:05:10;;;;;;;10.38;5.28;;;;;;;12.57;51.19;100915.13;5010901;28;20096;-58
2022/04/12 08:07:35;;;;;;;10.77;5.32;;;;;;;12.65;51.34;100920.41;5011916;28;20042;-58
2022/04/12 08:10:01;;;;;;;13.27;5.45;;;;;;;12.75;50.68;100919.38;5011435;28;20473;-57
2022/04/12 08:12:26;;;;;;;8.73;5.00;;;;;;;12.81;51.33;100915.19;5012235;28;20037;-57
2022/04/12 08:14:51;;;;;;;6.93;5.00;;;;;;;12.90;50.92;100924.78;5010627;28;20519;-57
2022/04/12 08:17:17;;;;;;;9.43;5.18;;;;;;;12.95;50.55;100911.78;5011523;28;20046;-57
2022/04/12 08:19:43;;;;;;;13.20;5.28;;;;;;;12.96;51.60;100904.63;5011682;28;20046;-58
2022/04/12 08:22:09;;;;;;;10.57;5.00;;;;;;;13.07;51.15;100914.84;5011489;28;20030;-58
2022/04/12 08:24:36;;;;;;;8.25;5.00;;;;;;;13.16;50.91;100923.63;5011204;28;20679;-58
2022/04/12 08:27:02;;;;;;;11.15;5.38;;;;;;;13.23;51.00;100911.25;5012313;28;20036;-57
2022/04/12 08:29:28;;;;;;;8.13;4.80;;;;;;;13.28;50.64;100911.56;5010933;28;20030;-58
2022/04/12 08:31:53;;;;;;;9.50;5.07;;;;;;;13.38;50.67;100915.81;5010741;28;20030;-58
2022/04/12 08:34:18;;;;;;;11.35;5.28;;;;;;;13.45;50.55;100916.75;5011545;28;20092;-58
2022/04/12 08:36:44;;;;;;;7.07;4.95;;;;;;;13.59;50.14;100918.66;5011008;28;20790;-58
2022/04/12 08:39:09;;;;;;;8.98;4.80;;;;;;;13.69;49.73;100914.94;5011510;28;20030;-57
2022/04/12 08:41:39;;;;;;;9.02;4.50;;;;;;;13.70;49.38;100904.09;5011124;28;20117;-57
2022/04/12 08:44:06;;;;;;;7.68;3.97;;;;;;;13.77;49.87;100896.19;5011469;28;20037;-58
2022/04/12 08:46:32;;;;;;;7.57;4.40;;;;;;;13.83;49.33;100890.13;5010685;28;20092;-58
2022/04/12 08:48:58;;;;;;;6.88;4.05;;;;;;;13.93;50.12;100897.06;5009575;28;20088;-57
2022/04/12 08:51:26;;;;;;;11.50;3.92;;;;;;;14.02;49.02;100885.31;5010806;28;20127;-57
2022/04/12 08:53:53;;;;;;;8.27;3.63;;;;;;;14.06;49.18;100881.25;5011887;28;20408;-58
2022/04/12 08:56:19;;;;;;;7.82;4.03;;;;;;;14.09;49.04;100880.06;5012032;28;20548;-58
2022/04/12 08:58:44;;;;;;;6.35;3.65;;;;;;;14.16;48.93;100880.16;5010677;28;20112;-58
2022/04/12 09:01:09;;;;;;;8.90;3.70;;;;;;;14.27;48.51;100877.03;5011680;28;20048;-58
2022/04/12 09:03:34;;;;;;;5.97;3.60;;;;;;;14.35;48.34;100878.75;5009947;28;20074;-58
2022/04/12 09:06:00;;;;;;;9.95;3.60;;;;;;;14.51;47.79;100883.88;5010132;28;20424;-58
2022/04/12 09:08:30;;;;;;;8.30;3.80;;;;;;;14.52;48.72;100879.38;5009755;28;20040;-58
2022/04/12 09:11:00;;;;;;;6.35;3.53;;;;;;;14.66;47.67;100886.53;5011841;28;20110;-57
2022/04/12 09:13:25;;;;;;;6.93;3.33;;;;;;;14.69;47.45;100884.50;5010686;28;20049;-57
2022/04/12 09:15:50;;;;;;;8.18;3.60;;;;;;;14.71;47.93;100867.28;5011853;28;20034;-58
2022/04/12 09:18:31;;;;;;;6.95;3.78;;;;;;;14.86;47.73;100864.59;4990491;28;20042;-58
2022/04/12 09:21:08;;;;;;;6.72;3.83;;;;;;;14.79;47.87;100842.34;4994413;28;20042;-57
2022/04/12 09:23:34;;;;;;;5.85;3.58;;;;;;;14.90;47.17;100849.84;4995195;28;20033;-58
2022/04/12 09:26:00;;;;;;;5.88;3.65;;;;;;;14.93;47.74;100844.16;4995197;28;20382;-58
2022/04/12 09:28:25;;;;;;;6.55;3.75;;;;;;;15.07;47.26;100852.28;4994452;28;20037;-58
2022/04/12 09:30:53;;;;;;;6.28;3.75;;;;;;;15.12;47.23;100851.69;4996616;28;20108;-60
2022/04/12 09:33:36;;;;;;;7.25;3.33;;;;;;;15.24;47.14;100841.34;4995613;28;20018;-60
2022/04/12 09:36:01;;;;;;;7.93;3.70;;;;;;;15.35;47.11;100840.81;4995020;28;20065;-59
2022/04/12 09:38:34;;;;;;;7.97;3.90;;;;;;;15.37;47.00;100837.94;4994390;28;20169;-60
2022/04/12 09:41:19;;;;;;;6.68;3.70;;;;;;;15.38;47.71;100851.09;4995574;28;20029;-60
2022/04/12 09:44:08;;;;;;;7.13;3.78;;;;;;;15.45;47.06;100851.97;5007299;28;20034;-60
2022/04/12 09:46:35;;;;;;;5.88;3.70;;;;;;;15.44;46.56;100855.66;4995309;28;20380;-60
2022/04/12 09:49:01;;;;;;;6.03;3.50;;;;;;;15.48;46.10;100844.59;4995162;28;20027;-59
2022/04/12 09:51:26;;;;;;;7.35;3.60;;;;;;;15.54;46.44;100859.88;4995185;28;20085;-60
2022/04/12 09:53:52;;;;;;;8.52;3.55;;;;;;;15.60;47.20;100851.06;4994981;28;20117;-60
2022/04/12 09:56:25;;;;;;;9.07;3.60;;;;;;;15.67;45.46;100851.94;4995177;28;20041;-60
2022/04/12 09:58:55;;;;;;;7.28;3.40;;;;;;;15.72;46.28;100851.34;4983402;28;20034;-58
2022/04/12 10:01:22;;;;;;;7.25;3.80;;;;;;;15.80;45.91;100866.41;4995349;28;20034;-57
2022/04/12 10:03:59;;;;;;;8.07;3.72;;;;;;;15.90;46.47;100853.53;4992738;28;20050;-58
2022/04/12 10:06:26;;;;;;;5.63;3.45;;;;;;;16.07;45.52;100847.88;4995060;28;20026;-58
2022/04/12 10:08:54;;;;;;;5.55;3.65;;;;;;;16.09;45.21;100838.63;4993529;28;20359;-58
2022/04/12 10:11:20;;;;;;;9.60;3.80;;;;;;;16.16;46.30;100829.81;4994262;28;20534;-58
2022/04/12 10:13:46;;;;;;;9.15;3.80;;;;;;;16.33;45.20;100830.31;4992445;28;20026;-58
2022/04/12 10:16:14;;;;;;;8.68;3.53;;;;;;;16.45;45.30;100815.31;4994537;28;20503;-57
2022/04/12 10:18:39;;;;;;;7.18;3.90;;;;;;;16.59;45.84;100818.03;5009343;28;20030;-58
2022/04/12 10:21:06;;;;;;;8.93;3.60;;;;;;;16.68;45.61;100816.81;5011056;28;20029;-58
2022/04/12 10:23:33;;;;;;;11.35;4.15;;;;;;;16.79;45.24;100818.06;5014006;28;20443;-58
2022/04/12 10:25:58;;;;;;;8.57;3.80;;;;;;;16.89;45.60;100812.31;5012816;28;20041;-58
2022/04/12 10:28:26;;;;;;;8.80;3.65;;;;;;;16.88;45.83;100799.97;5012971;28;20125;-58
2022/04/12 10:31:00;;;;;;;4.82;3.53;;;;;;;16.93;45.25;100810.88;5024333;28;20022;-56
2022/04/12 10:33:27;;;;;;;11.43;3.78;;;;;;;16.93;44.97;100803.66;5010989;28;20092;-56
2022/04/12 10:35:54;;;;;;;6.53;3.50;;;;;;;16.96;44.22;100797.06;5013913;28;20045;-56
2022/04/12 10:38:22;;;;;;;5.72;3.40;;;;;;;17.01;44.17;100788.41;5004483;28;20026;-58
2022/04/12 10:40:53;;;;;;;8.90;3.58;;;;;;;17.11;44.27;100796.09;5013042;28;20026;-58
2022/04/12 10:43:24;;;;;;;7.45;3.65;;;;;;;17.19;44.65;100801.22;5006273;28;20030;-56
2022/04/12 10:45:51;;;;;;;7.30;3.55;;;;;;;17.26;44.25;100796.69;5013190;28;20144;-56
2022/04/12 10:48:26;;;;;;;12.20;3.60;;;;;;;17.25;45.49;100794.22;5013144;28;20093;-56
2022/04/12 10:50:56;;;;;;;7.05;3.72;;;;;;;17.32;44.94;100795.84;5026059;28;20165;-56
2022/04/12 10:53:40;;;;;;;6.57;3.60;;;;;;;17.41;44.93;100790.31;5013115;28;20030;-56
2022/04/12 10:56:15;;;;;;;8.40;3.63;;;;;;;17.44;44.52;100782.66;5003990;28;20543;-56
2022/04/12 10:58:41;;;;;;;5.97;3.47;;;;;;;17.52;43.81;100781.59;5012455;28;20026;-56
2022/04/12 11:01:10;;;;;;;10.02;3.50;;;;;;;17.56;42.86;100782.84;5011809;28;20053;-56
2022/04/12 11:03:41;;;;;;;8.07;3.40;;;;;;;17.58;43.74;100770.03;5013209;28;20033;-56
2022/04/12 11:06:26;;;;;;;4.93;3.30;;;;;;;17.57;44.28;100787.16;5012024;28;20041;-56
2022/04/12 11:09:07;;;;;;;7.28;3.40;;;;;;;17.57;43.26;100787.16;5004445;28;20068;-57
2022/04/12 11:11:41;;;;;;;9.68;3.85;;;;;;;17.75;43.13;100793.72;5010278;28;20076;-59
2022/04/12 11:14:21;;;;;;;8.10;3.22;;;;;;;17.98;43.04;100792.41;5010289;28;20034;-59
2022/04/12 11:16:54;;;;;;;6.47;3.78;;;;;;;18.12;42.69;100799.41;5004023;28;20561;-58
2022/04/12 11:19:24;;;;;;;8.40;3.60;;;;;;;18.10;41.91;100796.09;5009463;28;20041;-59
2022/04/12 11:21:50;;;;;;;8.32;3.50;;;;;;;18.06;42.47;100778.78;5008517;28;20034;-57
2022/04/12 11:24:17;;;;;;;8.23;3.35;;;;;;;18.04;42.18;100775.47;5017541;28;20380;-58
2022/04/12 11:26:45;;;;;;;7.25;3.30;;;;;;;18.05;41.87;100782.47;5021419;28;20026;-58